Terminal Aerodrome Forecast
Issued by NWS

Home | Current Version | Previous Version | Text Only | Print | Product List | Glossary On
Versions: 1 2 3 4 5 6 7 8 9 10 11 12 13 14 15 16 17
000
FTUS43 KGRR 041100
TAFLAN
TAF
KLAN 041124Z 0412/0512 18007KT P6SM BKN120 BKN250
     FM041500 24009KT P6SM OVC035
     FM041800 30009KT P6SM BKN050
     FM050000 31006KT P6SM BKN250
     FM050600 09006KT P6SM OVC120
     FM051000 10008KT 6SM -RA OVC045=

USA.gov is the U.S. government's official web portal to all federal, state and local government web resources and services.